createdAt,value
2018-11-04T00:00:11.654Z,98544.42
2018-11-04T00:00:43.244Z,98550.87
2018-11-04T00:01:14.838Z,98547.46
2018-11-04T00:01:46.503Z,98549.16
2018-11-04T00:02:18.074Z,98544.47
2018-11-04T00:02:49.660Z,98548.31
2018-11-04T00:03:21.252Z,98526.72
2018-11-04T00:03:52.852Z,98542.34
2018-11-04T00:04:24.434Z,98542.77
2018-11-04T00:04:56.023Z,98548.27
2018-11-04T00:05:27.616Z,98542.28
2018-11-04T00:05:59.234Z,98544.38
2018-11-04T00:06:30.842Z,98538.83
2018-11-04T00:07:02.450Z,98536.69
2018-11-04T00:07:34.054Z,98533.66
2018-11-04T00:08:05.650Z,98537.06
2018-11-04T00:08:37.239Z,98542.13
2018-11-04T00:09:08.828Z,98541.70
2018-11-04T00:09:40.415Z,98537.39
2018-11-04T00:10:12.004Z,98538.23
2018-11-04T00:10:43.602Z,98537.34
2018-11-04T00:11:15.202Z,98537.77
2018-11-04T00:11:46.806Z,98540.32
2018-11-04T00:12:18.406Z,98543.73
2018-11-04T00:12:49.999Z,98542.83
2018-11-04T00:13:21.666Z,98536.00
2018-11-04T00:13:53.206Z,98540.21
2018-11-04T00:14:24.811Z,98538.08
2018-11-04T00:14:56.461Z,98539.31
2018-11-04T00:15:28.007Z,98538.45
2018-11-04T00:15:59.610Z,98535.46
2018-11-04T00:16:31.217Z,98530.72
2018-11-04T00:17:02.850Z,98534.98
2018-11-04T00:17:34.440Z,98525.17
2018-11-04T00:18:06.028Z,98531.98
2018-11-04T00:18:37.624Z,98532.80
2018-11-04T00:19:09.222Z,98528.10
2018-11-04T00:19:40.812Z,98526.82
2018-11-04T00:20:12.414Z,98527.61
2018-11-04T00:20:44.004Z,98529.74
2018-11-04T00:21:15.588Z,98527.56
2018-11-04T00:21:47.193Z,98532.68
2018-11-04T00:22:18.813Z,98529.66
2018-11-04T00:22:50.429Z,98529.64
2018-11-04T00:23:22.130Z,98530.92
2018-11-04T00:23:53.716Z,98533.48
2018-11-04T00:24:25.312Z,98528.77
2018-11-04T00:24:56.903Z,98537.69
2018-11-04T00:25:28.491Z,98533.86
2018-11-04T00:26:00.076Z,98530.06
2018-11-04T00:26:31.681Z,98539.39
2018-11-04T00:27:03.303Z,98533.00
2018-11-04T00:27:34.899Z,98531.72
2018-11-04T00:28:06.495Z,98530.45
2018-11-04T00:28:38.098Z,98535.55
2018-11-04T00:29:09.681Z,98533.00
2018-11-04T00:29:41.285Z,98532.14
2018-11-04T00:30:12.885Z,98531.29
2018-11-04T00:30:44.476Z,98530.87
2018-11-04T00:31:16.082Z,98527.45
2018-11-04T00:31:47.686Z,98523.19
2018-11-04T00:32:19.315Z,98534.28
2018-11-04T00:32:50.918Z,98527.45
2018-11-04T00:33:22.519Z,98533.84
2018-11-04T00:33:54.101Z,98530.87
2018-11-04T00:34:25.700Z,98525.75
2018-11-04T00:34:57.292Z,98528.31
2018-11-04T00:35:28.898Z,98526.22
2018-11-04T00:36:00.488Z,98526.66
2018-11-04T00:36:32.090Z,98529.64
2018-11-04T00:37:03.712Z,98525.42
2018-11-04T00:37:35.318Z,98523.72
2018-11-04T00:38:06.917Z,98527.56
2018-11-04T00:38:38.514Z,98523.30
2018-11-04T00:39:10.105Z,98515.20
2018-11-04T00:39:41.696Z,98519.88
2018-11-04T00:40:13.294Z,98522.02
2018-11-04T00:40:44.894Z,98516.42
2018-11-04T00:41:16.474Z,98512.14
2018-11-04T00:41:48.061Z,98516.34
2018-11-04T00:42:19.689Z,98508.66
2018-11-04T00:42:51.276Z,98513.36
2018-11-04T00:43:22.872Z,98512.94
2018-11-04T00:43:54.459Z,98512.50
2018-11-04T00:44:26.043Z,98517.63
2018-11-04T00:44:57.649Z,98505.25
2018-11-04T00:45:29.412Z,98508.23
2018-11-04T00:46:00.872Z,98505.25
2018-11-04T00:46:32.493Z,98504.81
2018-11-04T00:47:04.097Z,98507.81
2018-11-04T00:47:35.707Z,98504.41
2018-11-04T00:48:07.292Z,98498.91
2018-11-04T00:48:38.890Z,98502.75
2018-11-04T00:49:10.484Z,98501.47
2018-11-04T00:49:42.069Z,98498.92
2018-11-04T00:50:13.661Z,98499.81
2018-11-04T00:50:45.261Z,98503.23
2018-11-04T00:51:16.872Z,98501.58
2018-11-04T00:51:48.464Z,98505.85
2018-11-04T00:52:20.090Z,98500.74
2018-11-04T00:52:51.679Z,98499.46
2018-11-04T00:53:23.282Z,98499.92
2018-11-04T00:53:54.872Z,98502.49
2018-11-04T00:54:26.477Z,98503.34
2018-11-04T00:54:58.064Z,98501.65
2018-11-04T00:55:29.652Z,98499.52
2018-11-04T00:56:01.245Z,98504.68
2018-11-04T00:56:32.844Z,98502.55
2018-11-04T00:57:04.432Z,98496.16
2018-11-04T00:57:36.052Z,98491.94
2018-11-04T00:58:07.640Z,98497.05
2018-11-04T00:58:39.228Z,98496.62
2018-11-04T00:59:10.846Z,98497.48
2018-11-04T00:59:42.436Z,98497.53
2018-11-04T01:00:14.023Z,98491.09
2018-11-04T01:00:45.630Z,98494.56
2018-11-04T01:01:17.231Z,98488.59
2018-11-04T01:01:48.827Z,98488.59
2018-11-04T01:02:20.472Z,98489.06
2018-11-04T01:02:52.074Z,98495.89
2018-11-04T01:03:23.663Z,98490.77
2018-11-04T01:03:55.238Z,98489.50
2018-11-04T01:04:26.843Z,98486.13
2018-11-04T01:04:58.445Z,98492.11
2018-11-04T01:05:30.050Z,98492.11
2018-11-04T01:06:01.630Z,98492.54
2018-11-04T01:06:33.206Z,98494.25
2018-11-04T01:07:04.805Z,98491.27
2018-11-04T01:07:36.413Z,98490.45
2018-11-04T01:08:08.000Z,98490.03
2018-11-04T01:08:39.598Z,98495.16
2018-11-04T01:09:11.241Z,98489.61
2018-11-04T01:09:42.806Z,98491.36
2018-11-04T01:10:14.398Z,98488.38
2018-11-04T01:10:45.988Z,98484.95
2018-11-04T01:11:17.580Z,98490.08
2018-11-04T01:11:49.197Z,98486.67
2018-11-04T01:12:20.799Z,98490.47
2018-11-04T01:12:52.407Z,98484.11
2018-11-04T01:13:24.003Z,98481.55
2018-11-04T01:13:55.613Z,98483.69
2018-11-04T01:14:27.218Z,98481.17
2018-11-04T01:14:58.826Z,98477.77
2018-11-04T01:15:30.419Z,98480.76
2018-11-04T01:16:01.994Z,98477.34
2018-11-04T01:16:33.583Z,98480.77
2018-11-04T01:17:05.185Z,98474.84
2018-11-04T01:17:36.813Z,98480.38
2018-11-04T01:18:08.407Z,98477.87
2018-11-04T01:18:39.991Z,98474.04
2018-11-04T01:19:11.583Z,98471.48
2018-11-04T01:19:43.175Z,98471.11
2018-11-04T01:20:14.777Z,98470.68
2018-11-04T01:20:46.379Z,98460.45
2018-11-04T01:21:17.982Z,98464.77
2018-11-04T01:21:49.572Z,98469.03
2018-11-04T01:22:21.160Z,98457.94
2018-11-04T01:22:52.776Z,98465.62
2018-11-04T01:23:24.378Z,98463.11
2018-11-04T01:23:55.985Z,98459.75
2018-11-04T01:24:27.635Z,98457.58
2018-11-04T01:24:59.223Z,98461.88
2018-11-04T01:25:30.838Z,98461.03
2018-11-04T01:26:02.417Z,98460.17
2018-11-04T01:26:34.007Z,98462.31
2018-11-04T01:27:05.610Z,98453.36
2018-11-04T01:27:37.228Z,98464.03
2018-11-04T01:28:08.816Z,98456.81
2018-11-04T01:28:40.419Z,98458.48
2018-11-04T01:29:12.049Z,98463.59
2018-11-04T01:29:43.645Z,98462.75
2018-11-04T01:30:15.249Z,98457.67
2018-11-04T01:30:46.844Z,98452.98
2018-11-04T01:31:18.423Z,98456.41
2018-11-04T01:31:50.014Z,98454.27
2018-11-04T01:32:21.629Z,98457.26
2018-11-04T01:32:53.252Z,98455.54
2018-11-04T01:33:24.842Z,98452.13
2018-11-04T01:33:56.427Z,98449.16
2018-11-04T01:34:28.011Z,98454.22
2018-11-04T01:34:59.600Z,98451.27
2018-11-04T01:35:31.192Z,98449.53
2018-11-04T01:36:02.795Z,98451.27
2018-11-04T01:36:34.398Z,98448.72
2018-11-04T01:37:05.992Z,98441.05
2018-11-04T01:37:37.602Z,98442.33
2018-11-04T01:38:09.206Z,98441.89
2018-11-04T01:38:40.800Z,98440.66
2018-11-04T01:39:12.389Z,98446.59
2018-11-04T01:39:43.994Z,98438.91
2018-11-04T01:40:15.584Z,98441.05
2018-11-04T01:40:47.175Z,98436.35
2018-11-04T01:41:18.773Z,98440.63
2018-11-04T01:41:50.378Z,98441.90
2018-11-04T01:42:21.982Z,98439.34
2018-11-04T01:42:53.614Z,98436.73
2018-11-04T01:43:25.214Z,98441.00
2018-11-04T01:43:56.813Z,98438.02
2018-11-04T01:44:28.414Z,98437.16
2018-11-04T01:45:00.013Z,98443.12
2018-11-04T01:45:31.622Z,98440.14
2018-11-04T01:46:03.230Z,98439.72
2018-11-04T01:46:34.823Z,98447.77
2018-11-04T01:47:06.412Z,98444.36
2018-11-04T01:47:38.004Z,98446.48
2018-11-04T01:48:09.626Z,98443.45
2018-11-04T01:48:41.216Z,98449.42
2018-11-04T01:49:12.804Z,98443.88
2018-11-04T01:49:44.392Z,98444.28
2018-11-04T01:50:15.994Z,98444.66
2018-11-04T01:50:47.611Z,98444.23
2018-11-04T01:51:19.196Z,98451.44
2018-11-04T01:51:50.775Z,98447.59
2018-11-04T01:52:22.382Z,98446.31
2018-11-04T01:52:54.009Z,98445.87
2018-11-04T01:53:25.586Z,98448.44
2018-11-04T01:53:57.191Z,98446.69
2018-11-04T01:54:28.780Z,98444.92
2018-11-04T01:55:00.363Z,98441.92
2018-11-04T01:55:31.947Z,98444.82
2018-11-04T01:56:03.546Z,98447.42
2018-11-04T01:56:35.140Z,98438.88
2018-11-04T01:57:06.723Z,98440.55
2018-11-04T01:57:38.301Z,98406.45
2018-11-04T01:58:09.902Z,98443.96
2018-11-04T01:58:41.506Z,98442.69
2018-11-04T01:59:13.100Z,98440.13
2018-11-04T01:59:44.674Z,98441.44
2018-11-04T02:00:16.264Z,98440.59
2018-11-04T02:00:47.866Z,98433.30
2018-11-04T02:01:19.465Z,98436.28
2018-11-04T02:01:51.060Z,98434.58
2018-11-04T02:02:22.702Z,98426.47
2018-11-04T02:02:54.295Z,98429.02
2018-11-04T02:03:25.870Z,98424.33
2018-11-04T02:03:57.464Z,98426.05
2018-11-04T02:04:29.057Z,98421.36
2018-11-04T02:05:00.638Z,98423.91
2018-11-04T02:05:32.229Z,98426.47
2018-11-04T02:06:03.819Z,98423.47
2018-11-04T02:06:35.404Z,98418.73
2018-11-04T02:07:06.985Z,98417.02
2018-11-04T02:07:38.590Z,98419.47
2018-11-04T02:08:10.201Z,98420.31
2018-11-04T02:08:41.782Z,98418.17
2018-11-04T02:09:13.369Z,98418.99
2018-11-04T02:09:44.994Z,98424.10
2018-11-04T02:10:16.602Z,98420.69
2018-11-04T02:10:48.205Z,98418.56
2018-11-04T02:11:19.786Z,98417.28
2018-11-04T02:11:51.391Z,98413.48
2018-11-04T02:12:22.970Z,98414.34
2018-11-04T02:12:54.556Z,98408.36
2018-11-04T02:13:26.162Z,98412.20
2018-11-04T02:13:57.770Z,98412.59
2018-11-04T02:14:29.363Z,98413.06
2018-11-04T02:15:00.953Z,98409.64
2018-11-04T02:15:32.620Z,98409.64
2018-11-04T02:16:04.209Z,98406.66
2018-11-04T02:16:35.800Z,98409.16
2018-11-04T02:17:07.388Z,98409.16
2018-11-04T02:17:38.981Z,98410.40
2018-11-04T02:18:10.611Z,98403.61
2018-11-04T02:18:42.210Z,98401.86
2018-11-04T02:19:13.804Z,98401.86
2018-11-04T02:19:45.407Z,98402.28
2018-11-04T02:20:17.011Z,98401.86
2018-11-04T02:20:48.610Z,98398.39
2018-11-04T02:21:20.218Z,98406.54
2018-11-04T02:21:51.797Z,98395.88
2018-11-04T02:22:23.388Z,98402.29
2018-11-04T02:22:54.991Z,98396.80
2018-11-04T02:23:26.608Z,98404.89
2018-11-04T02:23:58.199Z,98400.22
2018-11-04T02:24:29.791Z,98406.61
2018-11-04T02:25:02.092Z,98399.83
2018-11-04T02:25:33.698Z,98402.81
2018-11-04T02:26:05.301Z,98397.71
2018-11-04T02:26:36.891Z,98396.86
2018-11-04T02:27:08.494Z,98399.42
2018-11-04T02:27:40.088Z,98397.71
2018-11-04T02:28:11.680Z,98396.44
2018-11-04T02:28:43.312Z,98402.41
2018-11-04T02:29:14.922Z,98382.95
2018-11-04T02:29:46.530Z,98395.14
2018-11-04T02:30:18.139Z,98389.53
2018-11-04T02:30:49.732Z,98393.37
2018-11-04T02:31:21.320Z,98391.66
2018-11-04T02:31:52.907Z,98400.63
2018-11-04T02:32:24.502Z,98394.72
2018-11-04T02:32:56.100Z,98392.59
2018-11-04T02:33:27.717Z,98389.60
2018-11-04T02:33:59.318Z,98393.87
2018-11-04T02:34:30.914Z,98363.14
2018-11-04T02:35:02.522Z,98386.66
2018-11-04T02:35:34.130Z,98391.38
2018-11-04T02:36:05.707Z,98390.13
2018-11-04T02:36:37.296Z,98389.72
2018-11-04T02:37:08.902Z,98387.22
2018-11-04T02:37:40.514Z,98389.35
2018-11-04T02:38:12.101Z,98383.38
2018-11-04T02:38:43.715Z,98384.25
2018-11-04T02:39:15.313Z,98385.56
2018-11-04T02:39:46.908Z,98385.14
2018-11-04T02:40:18.502Z,98380.83
2018-11-04T02:40:50.107Z,98381.23
2018-11-04T02:41:21.695Z,98379.06
2018-11-04T02:41:53.302Z,98385.03
2018-11-04T02:42:24.898Z,98384.13
2018-11-04T02:42:56.502Z,98383.73
2018-11-04T02:43:28.115Z,98385.02
2018-11-04T02:43:59.708Z,98385.41
2018-11-04T02:44:31.320Z,98387.16
2018-11-04T02:45:02.912Z,98384.17
2018-11-04T02:45:34.501Z,98386.30
2018-11-04T02:46:06.102Z,98383.70
2018-11-04T02:46:37.710Z,98385.41
2018-11-04T02:47:09.416Z,98382.89
2018-11-04T02:47:40.956Z,98380.34
2018-11-04T02:48:12.557Z,98384.59
2018-11-04T02:48:44.181Z,98375.69
2018-11-04T02:49:15.777Z,98379.53
2018-11-04T02:49:47.368Z,98376.98
2018-11-04T02:50:18.959Z,98371.45
2018-11-04T02:50:50.557Z,98371.92
2018-11-04T02:51:22.152Z,98372.29
2018-11-04T02:51:53.734Z,98371.44
2018-11-04T02:52:25.320Z,98371.88
2018-11-04T02:52:56.908Z,98372.78
2018-11-04T02:53:28.496Z,98373.22
2018-11-04T02:54:00.112Z,98332.37
2018-11-04T02:54:31.714Z,98368.62
2018-11-04T02:55:03.318Z,98371.19
2018-11-04T02:55:34.920Z,98373.76
2018-11-04T02:56:06.517Z,98370.39
2018-11-04T02:56:38.104Z,98375.09
2018-11-04T02:57:09.691Z,98371.27
2018-11-04T02:57:41.274Z,98375.14
2018-11-04T02:58:12.883Z,98377.29
2018-11-04T02:58:44.504Z,98373.50
2018-11-04T02:59:16.107Z,98380.75
2018-11-04T02:59:47.713Z,98378.19
2018-11-04T03:00:19.313Z,98377.77
2018-11-04T03:00:50.918Z,98383.73
2018-11-04T03:01:22.514Z,98376.97
2018-11-04T03:01:54.175Z,98377.38
2018-11-04T03:02:25.706Z,98382.50
2018-11-04T03:02:57.310Z,98376.50
2018-11-04T03:03:28.900Z,98378.66
2018-11-04T03:04:00.516Z,98374.40
2018-11-04T03:04:32.122Z,98376.11
2018-11-04T03:05:03.712Z,98374.84
2018-11-04T03:05:35.310Z,98371.00
2018-11-04T03:06:06.914Z,98370.58
2018-11-04T03:06:38.517Z,98373.98
2018-11-04T03:07:10.116Z,98372.28
2018-11-04T03:07:41.718Z,98371.86
2018-11-04T03:08:13.320Z,98376.13
2018-11-04T03:08:44.959Z,98375.27
2018-11-04T03:09:16.563Z,98373.56
2018-11-04T03:09:48.164Z,98376.97
2018-11-04T03:10:19.758Z,98369.73
2018-11-04T03:10:51.336Z,98369.73
2018-11-04T03:11:22.948Z,98370.15
2018-11-04T03:11:54.554Z,98369.72
2018-11-04T03:12:26.151Z,98373.13
2018-11-04T03:12:57.740Z,98365.45
2018-11-04T03:13:29.332Z,98370.57
2018-11-04T03:14:00.966Z,98374.41
2018-11-04T03:14:32.557Z,98367.59
2018-11-04T03:15:04.162Z,98369.29
2018-11-04T03:15:35.742Z,98368.02
2018-11-04T03:16:07.338Z,98361.20
2018-11-04T03:16:38.914Z,98369.72
2018-11-04T03:17:10.509Z,98368.88
2018-11-04T03:17:42.096Z,98369.73
2018-11-04T03:18:13.686Z,98372.71
2018-11-04T03:18:45.263Z,98368.45
2018-11-04T03:19:16.898Z,98367.16
2018-11-04T03:19:48.500Z,98364.61
2018-11-04T03:20:20.110Z,98354.00
2018-11-04T03:20:51.711Z,98359.06
2018-11-04T03:21:23.312Z,98356.07
2018-11-04T03:21:54.900Z,98358.62
2018-11-04T03:22:26.503Z,98357.34
2018-11-04T03:22:58.106Z,98356.06
2018-11-04T03:23:29.700Z,98354.36
2018-11-04T03:24:01.320Z,98361.56
2018-11-04T03:24:32.964Z,98352.60
2018-11-04T03:25:04.540Z,98347.48
2018-11-04T03:25:36.128Z,98349.61
2018-11-04T03:26:07.717Z,98351.70
2018-11-04T03:26:39.314Z,98347.00
2018-11-04T03:27:10.934Z,98348.28
2018-11-04T03:27:42.517Z,98353.81
2018-11-04T03:28:14.117Z,98350.36
2018-11-04T03:28:45.708Z,98345.67
2018-11-04T03:29:17.336Z,98349.08
2018-11-04T03:29:48.928Z,98348.22
2018-11-04T03:30:20.515Z,98347.37
2018-11-04T03:30:52.108Z,98346.51
2018-11-04T03:31:23.706Z,98350.34
2018-11-04T03:31:55.318Z,98343.09
2018-11-04T03:32:26.910Z,98344.39
2018-11-04T03:32:58.504Z,98343.95
2018-11-04T03:33:30.094Z,98350.34
2018-11-04T03:34:01.712Z,98351.62
2018-11-04T03:34:33.308Z,98345.61
2018-11-04T03:35:04.904Z,98348.58
2018-11-04T03:35:36.506Z,98343.04
2018-11-04T03:36:08.109Z,98345.59
2018-11-04T03:36:39.709Z,98351.09
2018-11-04T03:37:11.317Z,98337.92
2018-11-04T03:37:42.927Z,98346.39
2018-11-04T03:38:14.516Z,98345.52
2018-11-04T03:38:46.104Z,98342.11
2018-11-04T03:39:17.716Z,98342.92
2018-11-04T03:39:49.319Z,98342.49
2018-11-04T03:40:20.920Z,98339.07
2018-11-04T03:40:52.508Z,98339.45
2018-11-04T03:41:24.110Z,98342.00
2018-11-04T03:41:55.716Z,98333.45
2018-11-04T03:42:27.313Z,98333.46
2018-11-04T03:42:58.904Z,98335.59
2018-11-04T03:43:30.492Z,98341.52
2018-11-04T03:44:02.072Z,98339.80
2018-11-04T03:44:33.674Z,98338.52
2018-11-04T03:45:05.274Z,98337.23
2018-11-04T03:45:36.868Z,98333.40
2018-11-04T03:46:08.459Z,98330.41
2018-11-04T03:46:40.043Z,98332.94
2018-11-04T03:47:11.634Z,98332.48
2018-11-04T03:47:43.241Z,98334.15
2018-11-04T03:48:14.829Z,98334.56
2018-11-04T03:48:46.437Z,98334.98
2018-11-04T03:49:18.061Z,98336.26
2018-11-04T03:49:49.656Z,98332.85
2018-11-04T03:50:21.244Z,98333.27
2018-11-04T03:50:52.833Z,98329.87
2018-11-04T03:51:24.440Z,98329.45
2018-11-04T03:51:56.046Z,98331.58
2018-11-04T03:52:27.655Z,98331.58
2018-11-04T03:52:59.258Z,98331.59
2018-11-04T03:53:30.847Z,98330.79
2018-11-04T03:54:02.432Z,98329.51
2018-11-04T03:54:34.024Z,98328.66
2018-11-04T03:55:05.619Z,98335.47
2018-11-04T03:55:37.203Z,98329.09
2018-11-04T03:56:08.793Z,98331.22
2018-11-04T03:56:40.382Z,98327.88
2018-11-04T03:57:11.982Z,98332.55
2018-11-04T03:57:43.595Z,98325.25
2018-11-04T03:58:15.179Z,98326.58
2018-11-04T03:58:46.772Z,98326.59
2018-11-04T03:59:18.388Z,98322.37
2018-11-04T03:59:49.990Z,98324.50
2018-11-04T04:00:21.602Z,98317.69
2018-11-04T04:00:53.209Z,98322.80
2018-11-04T04:01:24.803Z,98317.70
2018-11-04T04:01:56.384Z,98321.17
2018-11-04T04:02:27.975Z,98323.23
2018-11-04T04:02:59.567Z,98316.83
2018-11-04T04:03:31.177Z,98313.00
2018-11-04T04:04:02.758Z,98319.82
2018-11-04T04:04:34.362Z,98306.17
2018-11-04T04:05:05.952Z,98309.16
2018-11-04T04:05:37.555Z,98314.28
2018-11-04T04:06:09.144Z,98312.15
2018-11-04T04:06:40.728Z,98313.48
2018-11-04T04:07:12.331Z,98310.06
2018-11-04T04:07:43.938Z,98318.17
2018-11-04T04:08:15.549Z,98313.05
2018-11-04T04:08:47.153Z,98316.47
2018-11-04T04:09:18.734Z,98313.07
2018-11-04T04:09:50.325Z,98312.69
2018-11-04T04:10:21.912Z,98312.27
2018-11-04T04:10:53.499Z,98316.16
2018-11-04T04:11:25.078Z,98315.73
2018-11-04T04:11:56.657Z,98312.34
2018-11-04T04:12:28.247Z,98313.66
2018-11-04T04:12:59.850Z,98307.70
2018-11-04T04:13:31.462Z,98306.00
2018-11-04T04:14:03.052Z,98313.29
2018-11-04T04:14:34.678Z,98311.59
2018-11-04T04:15:06.273Z,98306.05
2018-11-04T04:15:37.878Z,98309.03
2018-11-04T04:16:09.468Z,98302.20
2018-11-04T04:16:41.056Z,98301.80
2018-11-04T04:17:12.657Z,98303.98
2018-11-04T04:17:44.292Z,98302.71
2018-11-04T04:18:15.866Z,98303.61
2018-11-04T04:18:47.452Z,98296.38
2018-11-04T04:19:19.061Z,98301.11
2018-11-04T04:19:50.679Z,98301.11
2018-11-04T04:20:22.286Z,98303.69
2018-11-04T04:20:53.890Z,98301.59
2018-11-04T04:21:25.493Z,98301.61
2018-11-04T04:21:57.097Z,98296.07
2018-11-04T04:22:28.702Z,98302.08
2018-11-04T04:23:00.282Z,98303.37
2018-11-04T04:23:31.863Z,98299.11
2018-11-04T04:24:03.458Z,98301.72
2018-11-04T04:24:35.085Z,98293.20
2018-11-04T04:25:07.039Z,98292.78
2018-11-04T04:25:38.620Z,98292.78
2018-11-04T04:26:10.258Z,98282.16
2018-11-04T04:26:41.852Z,98297.51
2018-11-04T04:27:13.461Z,98291.97
2018-11-04T04:27:45.052Z,98287.28
2018-11-04T04:28:16.639Z,98294.95
2018-11-04T04:28:48.232Z,98297.53
2018-11-04T04:29:19.824Z,98296.67
2018-11-04T04:29:51.427Z,98296.24
2018-11-04T04:30:23.017Z,98295.82
2018-11-04T04:30:54.639Z,98297.11
2018-11-04T04:31:26.224Z,98294.16
2018-11-04T04:31:57.826Z,98299.70
2018-11-04T04:32:29.407Z,98303.97
2018-11-04T04:33:00.995Z,98302.27
2018-11-04T04:33:32.581Z,98302.28
2018-11-04T04:34:04.167Z,98303.54
2018-11-04T04:34:35.756Z,98297.16
2018-11-04T04:35:07.372Z,98300.14
2018-11-04T04:35:38.950Z,98298.01
2018-11-04T04:36:10.528Z,98301.84
2018-11-04T04:36:42.112Z,98296.25
2018-11-04T04:37:13.705Z,98294.97
2018-11-04T04:37:45.298Z,98297.57
2018-11-04T04:38:16.873Z,98291.13
2018-11-04T04:38:48.468Z,98288.56
2018-11-04T04:39:20.056Z,98294.48
2018-11-04T04:39:51.668Z,98288.88
2018-11-04T04:40:23.259Z,98293.94
2018-11-04T04:40:54.847Z,98293.50
2018-11-04T04:41:26.450Z,98295.20
2018-11-04T04:41:58.037Z,98292.17
2018-11-04T04:42:29.631Z,98292.16
2018-11-04T04:43:01.234Z,98289.17
2018-11-04T04:43:32.814Z,98285.77
2018-11-04T04:44:04.404Z,98292.95
2018-11-04T04:44:36.004Z,98287.40
2018-11-04T04:45:07.661Z,98295.03
2018-11-04T04:45:39.274Z,98291.18
2018-11-04T04:46:10.865Z,98288.64
2018-11-04T04:46:42.464Z,98288.22
2018-11-04T04:47:14.056Z,98290.39
2018-11-04T04:47:45.639Z,98286.98
2018-11-04T04:48:17.242Z,98289.50
2018-11-04T04:48:48.840Z,98288.63
2018-11-04T04:49:20.427Z,98287.35
2018-11-04T04:49:52.053Z,98286.92
2018-11-04T04:50:23.634Z,98284.36
2018-11-04T04:50:55.220Z,98285.16
2018-11-04T04:51:26.816Z,98281.69
2018-11-04T04:51:58.404Z,98285.05
2018-11-04T04:52:29.997Z,98277.30
2018-11-04T04:53:01.588Z,98280.64
2018-11-04T04:53:33.186Z,98280.63
2018-11-04T04:54:04.779Z,98283.14
2018-11-04T04:54:36.364Z,98279.30
2018-11-04T04:55:07.998Z,98280.56
2018-11-04T04:55:39.602Z,98273.69
2018-11-04T04:56:11.183Z,98275.80
2018-11-04T04:56:42.771Z,98276.23
2018-11-04T04:57:14.369Z,98275.77
2018-11-04T04:57:45.964Z,98273.61
2018-11-04T04:58:17.552Z,98277.41
2018-11-04T04:58:49.136Z,98272.70
2018-11-04T04:59:20.724Z,98270.56
2018-11-04T04:59:52.318Z,98273.55
2018-11-04T05:00:23.928Z,98274.78
2018-11-04T05:00:55.531Z,98275.62
2018-11-04T05:01:27.117Z,98276.90
2018-11-04T05:01:58.707Z,98267.50
2018-11-04T05:02:30.292Z,98267.52
2018-11-04T05:03:01.876Z,98267.89
2018-11-04T05:03:33.453Z,98269.16
2018-11-04T05:04:05.035Z,98265.75
2018-11-04T05:04:36.610Z,98267.45
2018-11-04T05:05:08.228Z,98250.66
2018-11-04T05:05:39.819Z,98269.16
2018-11-04T05:06:11.408Z,98269.58
2018-11-04T05:06:43.021Z,98269.57
2018-11-04T05:07:14.611Z,98267.44
2018-11-04T05:07:46.199Z,98271.23
2018-11-04T05:08:17.799Z,98271.66
2018-11-04T05:08:49.392Z,98270.42
2018-11-04T05:09:20.966Z,98271.21
2018-11-04T05:09:52.556Z,98268.61
2018-11-04T05:10:24.172Z,98269.50
2018-11-04T05:10:55.761Z,98267.80
2018-11-04T05:11:27.347Z,98259.75
2018-11-04T05:11:58.936Z,98264.41
2018-11-04T05:12:30.528Z,98261.89
2018-11-04T05:13:02.130Z,98260.19
2018-11-04T05:13:33.730Z,98263.20
2018-11-04T05:14:05.321Z,98261.11
2018-11-04T05:14:36.925Z,98262.45
2018-11-04T05:15:08.558Z,98261.55
2018-11-04T05:15:40.154Z,98258.19
2018-11-04T05:16:11.756Z,98256.48
2018-11-04T05:16:43.353Z,98254.78
2018-11-04T05:17:14.940Z,98251.38
2018-11-04T05:17:46.521Z,98247.16
2018-11-04T05:18:18.126Z,98251.81
2018-11-04T05:18:49.723Z,98251.43
2018-11-04T05:19:21.323Z,98253.98
2018-11-04T05:19:52.912Z,98255.28
2018-11-04T05:20:24.529Z,98253.16
2018-11-04T05:20:56.137Z,98256.14
2018-11-04T05:21:27.725Z,98254.06
2018-11-04T05:21:59.304Z,98254.92
2018-11-04T05:22:30.886Z,98253.22
2018-11-04T05:23:02.462Z,98249.91
2018-11-04T05:23:34.062Z,98257.55
2018-11-04T05:24:05.656Z,98255.45
2018-11-04T05:24:37.249Z,98253.33
2018-11-04T05:25:08.879Z,98250.78
2018-11-04T05:25:40.482Z,98252.92
2018-11-04T05:26:12.068Z,98255.48
2018-11-04T05:26:43.683Z,98251.27
2018-11-04T05:27:15.281Z,98251.70
2018-11-04T05:27:46.858Z,98253.83
2018-11-04T05:28:18.448Z,98251.70
2018-11-04T05:28:50.043Z,98246.21
2018-11-04T05:29:21.639Z,98248.78
2018-11-04T05:29:53.218Z,98248.41
2018-11-04T05:30:24.846Z,98250.97
2018-11-04T05:30:56.450Z,98249.27
2018-11-04T05:31:28.050Z,98248.05
2018-11-04T05:31:59.648Z,98246.76
2018-11-04T05:32:31.240Z,98246.72
2018-11-04T05:33:02.846Z,98253.10
2018-11-04T05:33:34.441Z,98250.97
2018-11-04T05:34:06.029Z,98247.13
2018-11-04T05:34:37.619Z,98242.44
2018-11-04T05:35:09.520Z,98247.56
2018-11-04T05:35:41.107Z,98240.32
2018-11-04T05:36:12.696Z,98241.59
2018-11-04T05:36:44.316Z,98242.88
2018-11-04T05:37:15.903Z,98246.76
2018-11-04T05:37:47.492Z,98245.48
2018-11-04T05:38:19.099Z,98239.95
2018-11-04T05:38:50.718Z,98243.37
2018-11-04T05:39:22.326Z,98242.14
2018-11-04T05:39:53.915Z,98248.13
2018-11-04T05:40:25.518Z,98248.59
2018-11-04T05:40:57.097Z,98239.66
2018-11-04T05:41:28.698Z,98245.56
2018-11-04T05:42:00.293Z,98248.48
2018-11-04T05:42:31.875Z,98248.48
2018-11-04T05:43:03.472Z,98247.20
2018-11-04T05:43:35.071Z,98240.86
2018-11-04T05:44:06.663Z,98246.35
2018-11-04T05:44:38.252Z,98251.47
2018-11-04T05:45:09.879Z,98250.23
2018-11-04T05:45:41.474Z,98249.81
2018-11-04T05:46:13.064Z,98252.38
2018-11-04T05:46:44.651Z,98246.42
2018-11-04T05:47:16.255Z,98246.89
2018-11-04T05:47:47.849Z,98250.73
2018-11-04T05:48:19.435Z,98247.37
2018-11-04T05:48:51.009Z,98249.94
2018-11-04T05:49:22.596Z,98249.94
2018-11-04T05:49:54.198Z,98253.79
2018-11-04T05:50:25.805Z,98250.38
2018-11-04T05:50:57.395Z,98252.98
2018-11-04T05:51:28.983Z,98258.55
2018-11-04T05:52:00.586Z,98256.03
2018-11-04T05:52:32.178Z,98258.61
2018-11-04T05:53:03.778Z,98259.89
2018-11-04T05:53:35.368Z,98254.39
2018-11-04T05:54:06.970Z,98266.34
2018-11-04T05:54:38.578Z,98265.53
2018-11-04T05:55:10.191Z,98292.82
2018-11-04T05:55:41.811Z,98261.71
2018-11-04T05:56:13.395Z,98260.86
2018-11-04T05:56:44.999Z,98263.46
2018-11-04T05:57:16.584Z,98262.63
2018-11-04T05:57:48.182Z,98263.05
2018-11-04T05:58:19.771Z,98263.05
2018-11-04T05:58:51.369Z,98262.63
2018-11-04T05:59:22.978Z,98257.55
2018-11-04T05:59:54.587Z,98259.69
2018-11-04T06:00:26.213Z,98261.83
2018-11-04T06:00:57.800Z,98260.56
2018-11-04T06:01:29.399Z,98256.72
2018-11-04T06:02:00.984Z,98266.52
2018-11-04T06:02:32.590Z,98266.95
2018-11-04T06:03:04.185Z,98257.63
2018-11-04T06:03:35.767Z,98269.50
2018-11-04T06:04:07.359Z,98268.66
2018-11-04T06:04:38.948Z,98247.59
2018-11-04T06:05:10.550Z,98270.78
2018-11-04T06:05:42.145Z,98269.92
2018-11-04T06:06:13.731Z,98271.16
2018-11-04T06:06:45.326Z,98269.01
2018-11-04T06:07:16.921Z,98273.21
2018-11-04T06:07:48.530Z,98273.16
2018-11-04T06:08:20.119Z,98275.28
2018-11-04T06:08:51.726Z,98279.06
2018-11-04T06:09:23.321Z,98276.03
2018-11-04T06:09:54.890Z,98276.88
2018-11-04T06:10:26.518Z,98275.16
2018-11-04T06:10:58.108Z,98276.81